Ana Sayfa
METAR-TAF:

METAR-TAF

Havaalanları :

Nankin Lukou Uluslararası Havalimanı

Nankin, Çin

Enlem: 32-00N, Boylam: 118-48E, yükseklik: 12 m

Güncel hava durumu gözlemi

Rapor saat 22:00 UTC de 45 dakika önce yapıldı.
Rüzgar güneydan 6 kt
Sıcaklık 30°C
Nem 100%
Basınç 1003 hPa
Görüş mesafesi 10 km veya daha fazla
1500 m altında bulut yok ve kümülonimbus yok

METAR: ZSNJ 212200Z 17003MPS CAVOK 30/30 Q1003 NOSIG

Saat: 06:45 (22:45 UTC)

Tahmin

Rapor saat 15:02 UTC de 7 saat ve 43 dakika önce yapıldı.
Ayın 21'si saat 18 UTC'den ayın 22'si saat 18 UTC'ye kadar geçerli Tahmin
Rüzgar güney/güneybatıdan 8 kt
Görüş mesafesi: 3500 m
Toz Pusu,

TAF: ZSNJ 211502Z 2118/2218 20004MPS 3500 HZ NSC TX38/2206Z TN29/2121Z

4.000'den fazla havaalanı için hava durumu gözlemleri ve tahminleri (METAR ve TAF raporları).

Kullanılabilir istasyonlar harita üzerinde sarı ve kırmızı noktalarla gösterilir.

İstasyonun adını görmek için fareyi noktanın üzerinde gezdirin.

Sonrasında hava gözlem ve tahminlerini görmek için tıklayın.

Haritayı değiştirmek için: yaklaştırmak için siyah artı işaretli yeşil düğmeye ve uzaklaştırmak için de eksi işaretli düğmeye hızla tıklayın; bitişik haritalar için yeşil okları kullanın.


METAR-TAF: